Terminal Aerodrome Forecast
Issued by NWS Pendleton, OR

Home | Current Version | Previous Version | Text Only | Print | Product List | Glossary On
Versions: 1 2 3 4 5 6 7 8 9 10 11 12 13
983
FTUS46 KPDT 200539
TAFPDT
TAF
KPDT 200539Z 2006/2106 27014G20KT P6SM -RA OVC050
      TEMPO 2006/2007 4SM RA BR SCT006 BKN012 OVC040
     FM201100 25016G24KT P6SM VCSH BKN060
     FM201500 26023G33KT P6SM BKN070
     FM210300 25016G24KT P6SM SCT070 BKN100=

USA.gov is the U.S. government's official web portal to all federal, state and local government web resources and services.